Historyczne dane pomiarowe

Dodano dane terminowe – wersja testowa.

Dane z okresu 1951-2019

Wersja bazy: 1.34 [2019-03-16, lista zmian], aktualizacja planowana na 2019-04-15

Dane meteo z obszaru Polski uzyskane na podstawie danych udostępnionych przez Instytut Meteorologii i Gospodarki Wodnej – Państwowy Instytut Badawczy.

 

Wybierz Datę:    

       

TemperaturaWilgotnośćWiatrCiśnienieOpadyŚniegCzas trwania zjawisk
 Stacja t tx tn tng RH VA  wxwx mslp ppp RRR   cm mm wxwxwxwxwxwxwx
1983-08-14 13.8 16.9 8.3 7.7 86.5- 3.0 4.3---- 0.7------------
1983-08-13 15.3 18.8 12.9 12.2 89.5- 1.7 3.7---- 6.0------------
1983-08-12 19.7 26.0 12.5 13.0 76.8- 0.7 3.7---- 3.3------------
1983-08-11 20.4 25.7 16.5 12.9 79.0- 3.0 3.0---- 0.0------------
1983-08-10 18.5 25.5 12.5 9.3 82.5- 4.3 1.0---- 2.2------------
1983-08-09 17.0 24.5 13.5 12.4 93.8- 5.3 1.7---- 15.4------------
1983-08-08 17.1 23.3 13.9 12.6 94.0- 4.3 3.7---- 4.8------------
1983-08-07 17.3 22.9 12.6 12.8 90.3- 7.3 2.3---- 18.5------------
1983-08-06 15.3 20.4 11.8 8.7 83.8- 6.0 2.0---- 4.7------------
1983-08-05 13.0 17.4 8.7 6.1 84.3- 4.3 2.0---- 4.0------------
1983-08-04 12.4 17.8 10.9 10.6 95.5- 8.0 4.3---- 2.3------------
1983-08-03 19.9 25.3 17.8 17.3 86.8- 7.0 3.0---- 2.6------------
1983-08-02 21.0 28.9 15.1 13.5 77.8- 3.3 2.3---- 6.1------------
1983-08-01 19.4 26.9 10.1 8.6 64.8- 0.0 3.7---- 0.0------------
1983-07-31 17.0 24.0 9.1 8.2 71.5- 0.7 2.3---- 0.0------------
1983-07-30 18.3 23.3 15.9 13.8 82.3- 3.3 7.0---- 0.0------------
1983-07-29 19.1 24.6 13.1 10.7 70.8- 4.0 3.7---- 0.4------------
1983-07-28 23.3 28.3 14.9 16.2 77.3- 2.7 5.7---- 0.0------------
1983-07-27 22.9 31.5 13.8 11.3 70.3- 0.7 1.0---- 0.0------------
1983-07-26 20.7 27.1 13.5 11.2 75.0- 4.3 2.7---- 0.0------------
1983-07-25 15.8 20.4 9.0 6.6 82.5- 6.0 3.0---- 0.0------------
1983-07-24 15.7 18.4 13.9 10.7 94.8- 7.7 1.7---- 1.0------------
1983-07-23 16.1 21.4 12.9 12.1 85.8- 7.7 7.0---- 0.0------------
1983-07-22 12.4 14.3 9.5 7.7 94.3- 8.0 5.7---- 3.6------------
1983-07-21 13.3 17.4 10.7 9.3 74.5- 8.0 5.7---- 0.0------------
1983-07-20 15.7 24.8 11.2 10.8 91.0- 6.0 4.3---- 2.6------------
1983-07-19 23.7 27.8 16.5 13.2 73.0- 1.7 2.7---- 12.4------------
1983-07-18 22.2 30.0 12.0 11.2 69.0- 0.7 1.0---- 2.6------------
1983-07-17 20.8 25.8 15.4 11.9 77.0- 1.7 1.7---- 0.0------------
1983-07-16 21.4 27.7 14.9 17.2 78.8- 1.7 3.0---- 0.0------------
1983-07-15 19.2 24.9 11.8 10.2 75.8- 0.0 4.3---- 0.0------------
1983-07-14 18.2 21.3 15.9 15.2 95.5- 7.3 5.0---- 2.0------------
1983-07-13 19.8 25.6 16.2 14.0 88.3- 0.0 5.0---- 33.0------------
1983-07-12 18.0 23.9 15.8 14.3 95.3- 7.0 5.0---- 21.3------------
1983-07-11 20.3 26.5 16.7 14.8 70.5- 6.0 1.7---- 3.0------------
1983-07-10 22.4 29.0 10.5 9.8 62.5- 0.0 3.7---- 0.0------------
1983-07-09 20.8 29.8 13.0 11.9 63.5- 0.0 1.0---- 0.0------------
1983-07-08 20.5 28.5 10.2 9.3 57.8- 0.7 1.7---- 0.0------------
1983-07-07 21.5 29.6 11.1 9.9 68.3- 1.3 3.7---- 0.0------------
1983-07-06 21.5 29.0 11.1 9.9 68.3- 2.0 3.7---- 0.0------------
1983-07-05 19.6 26.3 12.4 12.6 74.8- 1.3 3.7---- 0.0------------
1983-07-04 19.9 26.1 10.7 10.2 70.3- 4.0 1.0---- 0.0------------
1983-07-03 18.4 24.1 10.8 10.6 73.8- 1.3 3.7---- 0.0------------
1983-07-02 18.5 23.4 13.3 13.1 82.0- 7.3 5.0---- 0.0------------
1983-07-01 19.8 25.9 10.7 10.1 77.0- 2.3 1.0---- 0.0------------
1983-06-30 16.2 22.9 6.0 5.2 68.3- 0.7 1.7---- 0.0------------
1983-06-29 14.3 19.0 7.3 6.7 76.3- 2.7 3.0---- 0.0------------
1983-06-28 17.7 20.8 14.3 12.8 89.5- 8.0 3.7---- 0.2------------
1983-06-27 20.7 26.5 15.1 8.5 82.5- 7.7 3.7---- 12.6------------
1983-06-26 21.0 26.4 15.4 14.2 72.0- 5.0 3.7---- 2.8------------
1983-06-25 23.0 28.2 15.0 13.3 60.5- 2.0 3.7---- 1.4------------
1983-06-24 17.8 26.4 5.4 3.5 58.3- 0.0 2.3---- 0.0------------
1983-06-23 14.5 20.6 4.5 2.4 64.8- 0.0 3.0---- 0.0------------
1983-06-22 15.5 21.0 10.5 7.4 59.0- 0.7 4.3---- 0.0------------
1983-06-21 19.7 25.1 11.1 9.8 67.8- 4.0 3.7---- 0.0------------
1983-06-20 19.2 26.0 15.0 13.8 80.0- 6.7 3.0---- 0.0------------
1983-06-19 14.8 18.4 9.7 7.6 92.5- 8.0 5.7---- 0.0------------
1983-06-18 12.2 14.5 9.9 7.2 91.5- 8.0 7.0---- 6.8------------
1983-06-17 12.4 16.8 7.9 6.0 86.0- 7.0 4.3---- 6.9------------
1983-06-16 12.3 14.8 9.4 8.0 89.5- 8.0 7.7---- 0.0------------
1046.4 ms

 

Źródłem pochodzenia danych jest Instytut Meteorologii i Gospodarki Wodnej – Państwowy Instytut Badawczy. Dane Instytutu Meteorologii i Gospodarki Wodnej – Państwowego Instytutu Badawczego zostały przetworzone.

Dane źródłowe można odnaleźć na stronie https://dane.imgw.pl